sensor_id;sensor_type;location;lat;lon;timestamp;temperature;humidity
65203;HTU21D;51788;45.124;38.966;2022-07-22T00:00:13;19.20;71.36
65203;HTU21D;51788;45.124;38.966;2022-07-22T00:02:40;19.22;71.29
65203;HTU21D;51788;45.124;38.966;2022-07-22T00:05:06;19.21;71.37
65203;HTU21D;51788;45.124;38.966;2022-07-22T00:07:33;19.22;71.45
65203;HTU21D;51788;45.124;38.966;2022-07-22T00:09:59;19.22;71.53
65203;HTU21D;51788;45.124;38.966;2022-07-22T00:12:25;19.22;71.54
65203;HTU21D;51788;45.124;38.966;2022-07-22T00:14:51;19.21;71.51
65203;HTU21D;51788;45.124;38.966;2022-07-22T00:17:17;19.21;71.55
65203;HTU21D;51788;45.124;38.966;2022-07-22T00:19:43;19.21;71.55
65203;HTU21D;51788;45.124;38.966;2022-07-22T00:22:09;19.21;71.52
65203;HTU21D;51788;45.124;38.966;2022-07-22T00:24:35;19.21;71.58
65203;HTU21D;51788;45.124;38.966;2022-07-22T00:27:01;19.20;71.59
65203;HTU21D;51788;45.124;38.966;2022-07-22T00:29:26;19.16;71.63
65203;HTU21D;51788;45.124;38.966;2022-07-22T00:31:53;19.15;71.69
65203;HTU21D;51788;45.124;38.966;2022-07-22T00:34:19;19.09;71.68
65203;HTU21D;51788;45.124;38.966;2022-07-22T00:36:45;19.08;71.80
65203;HTU21D;51788;45.124;38.966;2022-07-22T00:39:11;19.06;71.77
65203;HTU21D;51788;45.124;38.966;2022-07-22T00:41:37;18.99;71.80
65203;HTU21D;51788;45.124;38.966;2022-07-22T00:44:07;18.89;72.17
65203;HTU21D;51788;45.124;38.966;2022-07-22T00:46:34;18.89;72.16
65203;HTU21D;51788;45.124;38.966;2022-07-22T00:49:02;18.91;72.10
65203;HTU21D;51788;45.124;38.966;2022-07-22T00:51:29;18.93;72.13
65203;HTU21D;51788;45.124;38.966;2022-07-22T00:53:56;18.94;72.14
65203;HTU21D;51788;45.124;38.966;2022-07-22T00:56:25;18.97;72.12
65203;HTU21D;51788;45.124;38.966;2022-07-22T00:58:53;18.98;72.11
65203;HTU21D;51788;45.124;38.966;2022-07-22T01:01:20;18.98;72.06
65203;HTU21D;51788;45.124;38.966;2022-07-22T01:03:46;18.95;72.09
65203;HTU21D;51788;45.124;38.966;2022-07-22T01:06:12;18.94;72.19
65203;HTU21D;51788;45.124;38.966;2022-07-22T01:08:38;18.92;72.20
65203;HTU21D;51788;45.124;38.966;2022-07-22T01:11:09;18.93;72.32
65203;HTU21D;51788;45.124;38.966;2022-07-22T01:13:36;18.94;72.16
65203;HTU21D;51788;45.124;38.966;2022-07-22T01:16:04;18.94;72.20
65203;HTU21D;51788;45.124;38.966;2022-07-22T01:18:30;18.94;72.20
65203;HTU21D;51788;45.124;38.966;2022-07-22T01:20:56;18.93;72.24
65203;HTU21D;51788;45.124;38.966;2022-07-22T01:23:22;18.93;72.29
65203;HTU21D;51788;45.124;38.966;2022-07-22T01:25:48;18.94;72.27
65203;HTU21D;51788;45.124;38.966;2022-07-22T01:28:14;18.92;72.26
65203;HTU21D;51788;45.124;38.966;2022-07-22T01:30:40;18.89;72.30
65203;HTU21D;51788;45.124;38.966;2022-07-22T01:33:06;18.86;72.32
65203;HTU21D;51788;45.124;38.966;2022-07-22T01:35:32;18.84;72.47
65203;HTU21D;51788;45.124;38.966;2022-07-22T01:37:58;18.85;72.48
65203;HTU21D;51788;45.124;38.966;2022-07-22T01:40:24;18.84;72.48
65203;HTU21D;51788;45.124;38.966;2022-07-22T01:42:50;18.83;72.46
65203;HTU21D;51788;45.124;38.966;2022-07-22T01:45:16;18.82;72.46
65203;HTU21D;51788;45.124;38.966;2022-07-22T01:47:43;18.81;72.49
65203;HTU21D;51788;45.124;38.966;2022-07-22T01:50:10;18.81;72.54
65203;HTU21D;51788;45.124;38.966;2022-07-22T01:52:38;18.82;72.53
65203;HTU21D;51788;45.124;38.966;2022-07-22T01:55:07;18.80;72.54
65203;HTU21D;51788;45.124;38.966;2022-07-22T01:57:33;18.79;72.61
65203;HTU21D;51788;45.124;38.966;2022-07-22T02:00:00;18.79;72.63
65203;HTU21D;51788;45.124;38.966;2022-07-22T02:02:29;18.79;72.63
65203;HTU21D;51788;45.124;38.966;2022-07-22T02:04:55;18.79;72.73
65203;HTU21D;51788;45.124;38.966;2022-07-22T02:07:21;18.77;72.77
65203;HTU21D;51788;45.124;38.966;2022-07-22T02:09:47;18.76;72.74
65203;HTU21D;51788;45.124;38.966;2022-07-22T02:12:13;18.71;72.82
65203;HTU21D;51788;45.124;38.966;2022-07-22T02:14:44;18.73;72.89
65203;HTU21D;51788;45.124;38.966;2022-07-22T02:17:11;18.74;72.83
65203;HTU21D;51788;45.124;38.966;2022-07-22T02:19:38;18.77;72.85
65203;HTU21D;51788;45.124;38.966;2022-07-22T02:22:04;18.77;72.95
65203;HTU21D;51788;45.124;38.966;2022-07-22T02:24:30;18.79;72.91
65203;HTU21D;51788;45.124;38.966;2022-07-22T02:26:56;18.78;72.98
65203;HTU21D;51788;45.124;38.966;2022-07-22T02:29:22;18.79;72.98
65203;HTU21D;51788;45.124;38.966;2022-07-22T02:31:49;18.81;72.95
65203;HTU21D;51788;45.124;38.966;2022-07-22T02:34:15;18.83;72.87
65203;HTU21D;51788;45.124;38.966;2022-07-22T02:36:41;18.84;72.81
65203;HTU21D;51788;45.124;38.966;2022-07-22T02:39:07;18.88;72.70
65203;HTU21D;51788;45.124;38.966;2022-07-22T02:41:33;18.94;72.57
65203;HTU21D;51788;45.124;38.966;2022-07-22T02:44:00;19.02;72.40
65203;HTU21D;51788;45.124;38.966;2022-07-22T02:46:26;19.12;72.20
65203;HTU21D;51788;45.124;38.966;2022-07-22T02:48:55;19.25;71.94
65203;HTU21D;51788;45.124;38.966;2022-07-22T02:51:22;19.36;71.66
65203;HTU21D;51788;45.124;38.966;2022-07-22T02:53:48;19.44;71.44
65203;HTU21D;51788;45.124;38.966;2022-07-22T02:56:15;19.51;71.26
65203;HTU21D;51788;45.124;38.966;2022-07-22T02:58:42;19.58;71.02
65203;HTU21D;51788;45.124;38.966;2022-07-22T03:01:08;19.70;70.76
65203;HTU21D;51788;45.124;38.966;2022-07-22T03:03:46;19.77;70.48
65203;HTU21D;51788;45.124;38.966;2022-07-22T03:06:12;19.81;70.32
65203;HTU21D;51788;45.124;38.966;2022-07-22T03:08:44;19.84;70.11
65203;HTU21D;51788;45.124;38.966;2022-07-22T03:11:11;19.86;70.02
65203;HTU21D;51788;45.124;38.966;2022-07-22T03:13:37;19.87;69.83
65203;HTU21D;51788;45.124;38.966;2022-07-22T03:16:04;19.89;69.62
65203;HTU21D;51788;45.124;38.966;2022-07-22T03:18:30;19.94;69.54
65203;HTU21D;51788;45.124;38.966;2022-07-22T03:20:56;20.07;69.23
65203;HTU21D;51788;45.124;38.966;2022-07-22T03:23:22;20.12;69.01
65203;HTU21D;51788;45.124;38.966;2022-07-22T03:25:48;20.11;68.99
65203;HTU21D;51788;45.124;38.966;2022-07-22T03:28:14;20.15;68.91
65203;HTU21D;51788;45.124;38.966;2022-07-22T03:30:40;20.13;68.97
65203;HTU21D;51788;45.124;38.966;2022-07-22T03:33:06;20.20;68.84
65203;HTU21D;51788;45.124;38.966;2022-07-22T03:35:37;20.29;68.65
65203;HTU21D;51788;45.124;38.966;2022-07-22T03:38:03;20.37;68.47
65203;HTU21D;51788;45.124;38.966;2022-07-22T03:40:30;20.49;68.10
65203;HTU21D;51788;45.124;38.966;2022-07-22T03:42:57;20.57;67.90
65203;HTU21D;51788;45.124;38.966;2022-07-22T03:45:23;20.70;67.65
65203;HTU21D;51788;45.124;38.966;2022-07-22T03:47:50;20.80;67.33
65203;HTU21D;51788;45.124;38.966;2022-07-22T03:50:17;20.92;66.95
65203;HTU21D;51788;45.124;38.966;2022-07-22T03:52:45;21.03;66.51
65203;HTU21D;51788;45.124;38.966;2022-07-22T03:55:11;21.04;66.27
65203;HTU21D;51788;45.124;38.966;2022-07-22T03:57:37;21.10;66.14
65203;HTU21D;51788;45.124;38.966;2022-07-22T04:00:10;21.08;65.94
65203;HTU21D;51788;45.124;38.966;2022-07-22T04:02:39;21.14;65.81
65203;HTU21D;51788;45.124;38.966;2022-07-22T04:05:08;21.20;65.58
65203;HTU21D;51788;45.124;38.966;2022-07-22T04:07:35;21.29;65.40
65203;HTU21D;51788;45.124;38.966;2022-07-22T04:10:01;21.33;65.14
65203;HTU21D;51788;45.124;38.966;2022-07-22T04:12:39;21.42;64.84
65203;HTU21D;51788;45.124;38.966;2022-07-22T04:15:21;21.51;64.50
65203;HTU21D;51788;45.124;38.966;2022-07-22T04:17:48;21.55;64.27
65203;HTU21D;51788;45.124;38.966;2022-07-22T04:20:14;21.61;64.11
65203;HTU21D;51788;45.124;38.966;2022-07-22T04:23:06;21.68;63.92
65203;HTU21D;51788;45.124;38.966;2022-07-22T04:25:33;21.75;63.73
65203;HTU21D;51788;45.124;38.966;2022-07-22T04:27:59;21.80;63.44
65203;HTU21D;51788;45.124;38.966;2022-07-22T04:30:25;21.82;63.39
65203;HTU21D;51788;45.124;38.966;2022-07-22T04:32:51;21.90;63.19
65203;HTU21D;51788;45.124;38.966;2022-07-22T04:35:17;21.94;63.11
65203;HTU21D;51788;45.124;38.966;2022-07-22T04:37:54;22.01;62.95
65203;HTU21D;51788;45.124;38.966;2022-07-22T04:40:21;22.06;62.82
65203;HTU21D;51788;45.124;38.966;2022-07-22T04:42:48;22.14;62.72
65203;HTU21D;51788;45.124;38.966;2022-07-22T04:45:14;22.20;62.50
65203;HTU21D;51788;45.124;38.966;2022-07-22T04:47:39;22.24;62.34
65203;HTU21D;51788;45.124;38.966;2022-07-22T04:50:06;22.25;62.34
65203;HTU21D;51788;45.124;38.966;2022-07-22T04:52:32;22.33;62.45
65203;HTU21D;51788;45.124;38.966;2022-07-22T04:54:58;22.38;62.47
65203;HTU21D;51788;45.124;38.966;2022-07-22T04:57:25;22.46;62.55
65203;HTU21D;51788;45.124;38.966;2022-07-22T04:59:54;22.60;62.47
65203;HTU21D;51788;45.124;38.966;2022-07-22T05:02:20;22.71;62.34
65203;HTU21D;51788;45.124;38.966;2022-07-22T05:04:47;22.82;62.29
65203;HTU21D;51788;45.124;38.966;2022-07-22T05:07:14;22.88;62.28
65203;HTU21D;51788;45.124;38.966;2022-07-22T05:09:40;22.91;62.34
65203;HTU21D;51788;45.124;38.966;2022-07-22T05:12:09;22.96;62.42
65203;HTU21D;51788;45.124;38.966;2022-07-22T05:14:35;22.96;62.52
65203;HTU21D;51788;45.124;38.966;2022-07-22T05:17:02;22.99;62.58
65203;HTU21D;51788;45.124;38.966;2022-07-22T05:19:29;23.12;62.59
65203;HTU21D;51788;45.124;38.966;2022-07-22T05:21:55;23.27;62.31
65203;HTU21D;51788;45.124;38.966;2022-07-22T05:24:21;23.51;61.67
65203;HTU21D;51788;45.124;38.966;2022-07-22T05:26:47;23.74;60.99
65203;HTU21D;51788;45.124;38.966;2022-07-22T05:29:13;23.83;60.80
65203;HTU21D;51788;45.124;38.966;2022-07-22T05:31:39;23.85;60.80
65203;HTU21D;51788;45.124;38.966;2022-07-22T05:34:05;23.80;60.91
65203;HTU21D;51788;45.124;38.966;2022-07-22T05:36:38;23.84;60.83
65203;HTU21D;51788;45.124;38.966;2022-07-22T05:39:06;23.90;60.80
65203;HTU21D;51788;45.124;38.966;2022-07-22T05:41:32;24.01;60.71
65203;HTU21D;51788;45.124;38.966;2022-07-22T05:43:58;24.18;60.28
65203;HTU21D;51788;45.124;38.966;2022-07-22T05:46:24;24.20;60.18
65203;HTU21D;51788;45.124;38.966;2022-07-22T05:48:50;24.30;60.10
65203;HTU21D;51788;45.124;38.966;2022-07-22T05:51:16;24.44;59.90
65203;HTU21D;51788;45.124;38.966;2022-07-22T05:53:43;24.58;59.44
65203;HTU21D;51788;45.124;38.966;2022-07-22T05:56:10;24.72;59.01
65203;HTU21D;51788;45.124;38.966;2022-07-22T05:58:38;24.86;58.80
65203;HTU21D;51788;45.124;38.966;2022-07-22T06:01:04;24.92;58.72
65203;HTU21D;51788;45.124;38.966;2022-07-22T06:03:31;24.99;58.46
65203;HTU21D;51788;45.124;38.966;2022-07-22T06:05:58;25.07;57.92
65203;HTU21D;51788;45.124;38.966;2022-07-22T06:08:24;25.17;57.71
65203;HTU21D;51788;45.124;38.966;2022-07-22T06:10:51;25.16;57.66
65203;HTU21D;51788;45.124;38.966;2022-07-22T06:13:19;25.23;57.18
65203;HTU21D;51788;45.124;38.966;2022-07-22T06:15:45;25.30;57.01
65203;HTU21D;51788;45.124;38.966;2022-07-22T06:18:11;25.37;57.13
65203;HTU21D;51788;45.124;38.966;2022-07-22T06:20:37;25.40;57.11
65203;HTU21D;51788;45.124;38.966;2022-07-22T06:23:04;25.38;57.03
65203;HTU21D;51788;45.124;38.966;2022-07-22T06:25:31;25.40;57.02
65203;HTU21D;51788;45.124;38.966;2022-07-22T06:27:57;25.48;56.63
65203;HTU21D;51788;45.124;38.966;2022-07-22T06:30:23;25.56;56.65
65203;HTU21D;51788;45.124;38.966;2022-07-22T06:32:49;25.56;55.94
65203;HTU21D;51788;45.124;38.966;2022-07-22T06:35:16;25.62;55.38
65203;HTU21D;51788;45.124;38.966;2022-07-22T06:37:42;25.67;55.09
65203;HTU21D;51788;45.124;38.966;2022-07-22T06:40:08;25.68;54.30
65203;HTU21D;51788;45.124;38.966;2022-07-22T06:42:57;25.58;54.08
65203;HTU21D;51788;45.124;38.966;2022-07-22T06:45:55;25.59;54.73
65203;HTU21D;51788;45.124;38.966;2022-07-22T06:48:30;25.66;54.61
65203;HTU21D;51788;45.124;38.966;2022-07-22T06:50:56;25.68;54.43
65203;HTU21D;51788;45.124;38.966;2022-07-22T06:53:23;25.74;54.19
65203;HTU21D;51788;45.124;38.966;2022-07-22T06:55:49;25.77;53.84
65203;HTU21D;51788;45.124;38.966;2022-07-22T06:58:15;25.78;52.41
65203;HTU21D;51788;45.124;38.966;2022-07-22T07:00:41;25.83;52.65
65203;HTU21D;51788;45.124;38.966;2022-07-22T07:03:31;25.97;52.62
65203;HTU21D;51788;45.124;38.966;2022-07-22T07:06:00;26.03;52.26
65203;HTU21D;51788;45.124;38.966;2022-07-22T07:08:32;26.07;52.45
65203;HTU21D;51788;45.124;38.966;2022-07-22T07:10:58;26.16;51.73
65203;HTU21D;51788;45.124;38.966;2022-07-22T07:13:24;26.23;51.48
65203;HTU21D;51788;45.124;38.966;2022-07-22T07:15:51;26.31;51.21
65203;HTU21D;51788;45.124;38.966;2022-07-22T07:18:17;26.38;50.92
65203;HTU21D;51788;45.124;38.966;2022-07-22T07:20:44;26.50;50.14
65203;HTU21D;51788;45.124;38.966;2022-07-22T07:23:10;26.62;50.03
65203;HTU21D;51788;45.124;38.966;2022-07-22T07:25:43;26.76;49.37
65203;HTU21D;51788;45.124;38.966;2022-07-22T07:28:09;26.83;49.54
65203;HTU21D;51788;45.124;38.966;2022-07-22T07:30:57;26.83;49.62
65203;HTU21D;51788;45.124;38.966;2022-07-22T07:33:23;27.02;48.79
65203;HTU21D;51788;45.124;38.966;2022-07-22T07:35:51;27.14;49.00
65203;HTU21D;51788;45.124;38.966;2022-07-22T07:38:24;27.34;48.61
65203;HTU21D;51788;45.124;38.966;2022-07-22T07:40:51;27.51;48.08
65203;HTU21D;51788;45.124;38.966;2022-07-22T07:43:17;27.45;48.25
65203;HTU21D;51788;45.124;38.966;2022-07-22T07:45:43;27.53;47.73
65203;HTU21D;51788;45.124;38.966;2022-07-22T07:48:10;27.55;47.73
65203;HTU21D;51788;45.124;38.966;2022-07-22T07:50:37;27.52;47.93
65203;HTU21D;51788;45.124;38.966;2022-07-22T07:53:04;27.51;48.41
65203;HTU21D;51788;45.124;38.966;2022-07-22T07:55:31;27.47;48.70
65203;HTU21D;51788;45.124;38.966;2022-07-22T07:57:58;27.31;48.99
65203;HTU21D;51788;45.124;38.966;2022-07-22T08:00:25;27.17;49.16
65203;HTU21D;51788;45.124;38.966;2022-07-22T08:02:56;27.15;49.48
65203;HTU21D;51788;45.124;38.966;2022-07-22T08:05:24;27.10;49.80
65203;HTU21D;51788;45.124;38.966;2022-07-22T08:07:51;27.10;49.44
65203;HTU21D;51788;45.124;38.966;2022-07-22T08:10:18;27.12;49.32
65203;HTU21D;51788;45.124;38.966;2022-07-22T08:12:58;27.14;49.58
65203;HTU21D;51788;45.124;38.966;2022-07-22T08:15:43;27.26;49.36
65203;HTU21D;51788;45.124;38.966;2022-07-22T08:18:17;27.20;49.02
65203;HTU21D;51788;45.124;38.966;2022-07-22T08:20:43;27.08;49.16
65203;HTU21D;51788;45.124;38.966;2022-07-22T08:23:11;27.10;49.50
65203;HTU21D;51788;45.124;38.966;2022-07-22T08:25:40;27.20;49.37
65203;HTU21D;51788;45.124;38.966;2022-07-22T08:28:07;27.39;48.85
65203;HTU21D;51788;45.124;38.966;2022-07-22T08:30:34;27.53;48.18
65203;HTU21D;51788;45.124;38.966;2022-07-22T08:33:00;27.66;48.05
65203;HTU21D;51788;45.124;38.966;2022-07-22T08:35:26;27.86;47.43
65203;HTU21D;51788;45.124;38.966;2022-07-22T08:37:52;27.95;46.89
65203;HTU21D;51788;45.124;38.966;2022-07-22T08:40:19;28.04;46.70
65203;HTU21D;51788;45.124;38.966;2022-07-22T08:42:48;28.20;46.45
65203;HTU21D;51788;45.124;38.966;2022-07-22T08:45:16;28.32;46.39
65203;HTU21D;51788;45.124;38.966;2022-07-22T08:47:47;28.25;45.99
65203;HTU21D;51788;45.124;38.966;2022-07-22T08:50:25;28.05;46.02
65203;HTU21D;51788;45.124;38.966;2022-07-22T08:53:00;28.04;45.57
65203;HTU21D;51788;45.124;38.966;2022-07-22T08:55:26;28.12;45.22
65203;HTU21D;51788;45.124;38.966;2022-07-22T08:57:53;28.18;45.03
65203;HTU21D;51788;45.124;38.966;2022-07-22T09:00:21;28.26;44.79
65203;HTU21D;51788;45.124;38.966;2022-07-22T09:02:49;28.26;44.52
65203;HTU21D;51788;45.124;38.966;2022-07-22T09:05:17;28.18;44.79
65203;HTU21D;51788;45.124;38.966;2022-07-22T09:07:44;28.20;45.06
65203;HTU21D;51788;45.124;38.966;2022-07-22T09:10:22;28.17;45.23
65203;HTU21D;51788;45.124;38.966;2022-07-22T09:13:14;28.13;45.25
65203;HTU21D;51788;45.124;38.966;2022-07-22T09:15:55;28.21;45.73
65203;HTU21D;51788;45.124;38.966;2022-07-22T09:18:50;28.54;45.32
65203;HTU21D;51788;45.124;38.966;2022-07-22T09:21:42;28.75;45.07
65203;HTU21D;51788;45.124;38.966;2022-07-22T09:24:31;28.64;45.28
65203;HTU21D;51788;45.124;38.966;2022-07-22T09:27:26;28.52;45.70
65203;HTU21D;51788;45.124;38.966;2022-07-22T09:30:16;28.73;45.51
65203;HTU21D;51788;45.124;38.966;2022-07-22T09:32:51;28.82;45.34
65203;HTU21D;51788;45.124;38.966;2022-07-22T09:35:37;28.90;45.22
65203;HTU21D;51788;45.124;38.966;2022-07-22T09:38:08;28.99;44.61
65203;HTU21D;51788;45.124;38.966;2022-07-22T09:40:37;29.06;44.82
65203;HTU21D;51788;45.124;38.966;2022-07-22T09:43:06;29.21;44.87
65203;HTU21D;51788;45.124;38.966;2022-07-22T09:45:33;29.22;44.60
65203;HTU21D;51788;45.124;38.966;2022-07-22T09:48:01;29.20;44.65
65203;HTU21D;51788;45.124;38.966;2022-07-22T09:50:46;29.23;44.77
65203;HTU21D;51788;45.124;38.966;2022-07-22T09:53:22;29.39;44.04
65203;HTU21D;51788;45.124;38.966;2022-07-22T09:56:07;29.57;43.26
65203;HTU21D;51788;45.124;38.966;2022-07-22T09:58:34;29.67;43.26
65203;HTU21D;51788;45.124;38.966;2022-07-22T10:01:05;29.58;43.58
65203;HTU21D;51788;45.124;38.966;2022-07-22T10:03:34;29.60;43.00
65203;HTU21D;51788;45.124;38.966;2022-07-22T10:06:04;29.73;42.51
65203;HTU21D;51788;45.124;38.966;2022-07-22T10:08:32;29.86;41.97
65203;HTU21D;51788;45.124;38.966;2022-07-22T10:11:01;29.79;42.07
65203;HTU21D;51788;45.124;38.966;2022-07-22T10:13:29;30.28;41.84
65203;HTU21D;51788;45.124;38.966;2022-07-22T10:15:56;31.08;40.52
65203;HTU21D;51788;45.124;38.966;2022-07-22T10:18:23;30.62;41.32
65203;HTU21D;51788;45.124;38.966;2022-07-22T10:21:09;30.09;42.20
65203;HTU21D;51788;45.124;38.966;2022-07-22T10:23:36;29.75;43.70
65203;HTU21D;51788;45.124;38.966;2022-07-22T10:26:48;29.31;45.32
65203;HTU21D;51788;45.124;38.966;2022-07-22T10:29:29;28.95;46.72
65203;HTU21D;51788;45.124;38.966;2022-07-22T10:40:10;28.30;48.28
65203;HTU21D;51788;45.124;38.966;2022-07-22T10:43:08;28.00;49.09
65203;HTU21D;51788;45.124;38.966;2022-07-22T10:45:41;27.60;49.76
65203;HTU21D;51788;45.124;38.966;2022-07-22T10:48:18;27.12;51.75
65203;HTU21D;51788;45.124;38.966;2022-07-22T10:50:53;26.38;57.26
65203;HTU21D;51788;45.124;38.966;2022-07-22T10:53:23;25.00;63.98
65203;HTU21D;51788;45.124;38.966;2022-07-22T10:56:14;23.11;69.29
65203;HTU21D;51788;45.124;38.966;2022-07-22T10:58:42;22.37;70.06
65203;HTU21D;51788;45.124;38.966;2022-07-22T11:01:11;22.07;70.42
65203;HTU21D;51788;45.124;38.966;2022-07-22T11:03:40;21.72;70.60
65203;HTU21D;51788;45.124;38.966;2022-07-22T11:06:22;21.44;71.88
65203;HTU21D;51788;45.124;38.966;2022-07-22T11:08:53;21.33;71.84
65203;HTU21D;51788;45.124;38.966;2022-07-22T11:11:52;21.37;71.76
65203;HTU21D;51788;45.124;38.966;2022-07-22T11:17:08;21.28;73.25
65203;HTU21D;51788;45.124;38.966;2022-07-22T11:19:35;21.35;73.80
65203;HTU21D;51788;45.124;38.966;2022-07-22T11:22:11;21.36;74.28
65203;HTU21D;51788;45.124;38.966;2022-07-22T11:24:40;21.36;75.02
65203;HTU21D;51788;45.124;38.966;2022-07-22T11:27:16;21.33;74.43
65203;HTU21D;51788;45.124;38.966;2022-07-22T11:29:43;21.33;73.91
65203;HTU21D;51788;45.124;38.966;2022-07-22T11:32:14;21.22;73.35
65203;HTU21D;51788;45.124;38.966;2022-07-22T11:34:42;21.14;73.26
65203;HTU21D;51788;45.124;38.966;2022-07-22T11:37:11;21.06;74.14
65203;HTU21D;51788;45.124;38.966;2022-07-22T11:39:37;21.06;74.54
65203;HTU21D;51788;45.124;38.966;2022-07-22T11:42:04;21.10;74.63
65203;HTU21D;51788;45.124;38.966;2022-07-22T11:44:32;21.18;74.78
65203;HTU21D;51788;45.124;38.966;2022-07-22T11:46:59;21.25;74.81
65203;HTU21D;51788;45.124;38.966;2022-07-22T11:49:28;21.44;74.70
65203;HTU21D;51788;45.124;38.966;2022-07-22T11:51:55;21.44;74.96
65203;HTU21D;51788;45.124;38.966;2022-07-22T11:54:22;21.61;75.86
65203;HTU21D;51788;45.124;38.966;2022-07-22T11:56:48;21.66;75.83
65203;HTU21D;51788;45.124;38.966;2022-07-22T11:59:16;21.59;76.45
65203;HTU21D;51788;45.124;38.966;2022-07-22T12:01:44;21.57;77.18
65203;HTU21D;51788;45.124;38.966;2022-07-22T12:04:13;21.59;78.85
65203;HTU21D;51788;45.124;38.966;2022-07-22T12:06:42;21.39;79.27
65203;HTU21D;51788;45.124;38.966;2022-07-22T12:09:12;20.87;81.20
65203;HTU21D;51788;45.124;38.966;2022-07-22T12:11:44;20.54;83.23
65203;HTU21D;51788;45.124;38.966;2022-07-22T12:16:38;19.86;83.36
65203;HTU21D;51788;45.124;38.966;2022-07-22T12:19:13;19.65;84.03
65203;HTU21D;51788;45.124;38.966;2022-07-22T12:21:54;19.46;84.90
65203;HTU21D;51788;45.124;38.966;2022-07-22T12:24:38;19.45;84.46
65203;HTU21D;51788;45.124;38.966;2022-07-22T12:27:07;19.67;83.45
65203;HTU21D;51788;45.124;38.966;2022-07-22T12:34:56;20.37;81.82
65203;HTU21D;51788;45.124;38.966;2022-07-22T12:40:17;20.63;81.66
65203;HTU21D;51788;45.124;38.966;2022-07-22T12:42:46;20.48;82.09
65203;HTU21D;51788;45.124;38.966;2022-07-22T12:45:19;20.46;82.86
65203;HTU21D;51788;45.124;38.966;2022-07-22T12:48:05;20.63;82.88
65203;HTU21D;51788;45.124;38.966;2022-07-22T12:50:43;20.70;82.39
65203;HTU21D;51788;45.124;38.966;2022-07-22T12:53:19;20.72;82.41
65203;HTU21D;51788;45.124;38.966;2022-07-22T12:55:47;20.78;82.49
65203;HTU21D;51788;45.124;38.966;2022-07-22T12:58:15;20.94;82.12
65203;HTU21D;51788;45.124;38.966;2022-07-22T13:00:44;21.05;81.91
65203;HTU21D;51788;45.124;38.966;2022-07-22T13:03:10;20.99;82.08
65203;HTU21D;51788;45.124;38.966;2022-07-22T13:05:36;21.05;81.98
65203;HTU21D;51788;45.124;38.966;2022-07-22T13:08:03;21.15;81.81
65203;HTU21D;51788;45.124;38.966;2022-07-22T13:10:29;21.19;81.55
65203;HTU21D;51788;45.124;38.966;2022-07-22T13:12:55;21.19;81.54
65203;HTU21D;51788;45.124;38.966;2022-07-22T13:15:22;21.06;81.59
65203;HTU21D;51788;45.124;38.966;2022-07-22T13:17:49;20.98;81.95
65203;HTU21D;51788;45.124;38.966;2022-07-22T13:20:16;20.98;82.36
65203;HTU21D;51788;45.124;38.966;2022-07-22T13:22:44;20.88;82.20
65203;HTU21D;51788;45.124;38.966;2022-07-22T13:25:10;20.81;82.18
65203;HTU21D;51788;45.124;38.966;2022-07-22T13:27:36;20.74;82.42
65203;HTU21D;51788;45.124;38.966;2022-07-22T13:30:03;20.72;82.62
65203;HTU21D;51788;45.124;38.966;2022-07-22T13:32:30;20.72;82.56
65203;HTU21D;51788;45.124;38.966;2022-07-22T13:34:56;20.74;82.47
65203;HTU21D;51788;45.124;38.966;2022-07-22T13:37:22;20.68;82.45
65203;HTU21D;51788;45.124;38.966;2022-07-22T13:39:49;20.64;82.57
65203;HTU21D;51788;45.124;38.966;2022-07-22T13:42:15;20.63;82.54
65203;HTU21D;51788;45.124;38.966;2022-07-22T13:44:46;20.60;82.75
65203;HTU21D;51788;45.124;38.966;2022-07-22T13:47:13;20.54;83.01
65203;HTU21D;51788;45.124;38.966;2022-07-22T13:49:39;20.54;83.34
65203;HTU21D;51788;45.124;38.966;2022-07-22T13:52:05;20.49;83.38
65203;HTU21D;51788;45.124;38.966;2022-07-22T13:54:32;20.41;84.00
65203;HTU21D;51788;45.124;38.966;2022-07-22T13:56:59;20.41;84.02
65203;HTU21D;51788;45.124;38.966;2022-07-22T13:59:25;20.41;83.94
65203;HTU21D;51788;45.124;38.966;2022-07-22T14:01:51;20.40;83.97
65203;HTU21D;51788;45.124;38.966;2022-07-22T14:04:17;20.34;84.24
65203;HTU21D;51788;45.124;38.966;2022-07-22T14:06:43;20.28;83.90
65203;HTU21D;51788;45.124;38.966;2022-07-22T14:09:09;20.25;83.71
65203;HTU21D;51788;45.124;38.966;2022-07-22T14:11:35;20.17;83.58
65203;HTU21D;51788;45.124;38.966;2022-07-22T14:14:01;20.12;83.34
65203;HTU21D;51788;45.124;38.966;2022-07-22T14:16:27;20.14;83.36
65203;HTU21D;51788;45.124;38.966;2022-07-22T14:19:04;20.16;83.17
65203;HTU21D;51788;45.124;38.966;2022-07-22T14:21:31;20.18;82.96
65203;HTU21D;51788;45.124;38.966;2022-07-22T14:23:56;20.26;82.79
65203;HTU21D;51788;45.124;38.966;2022-07-22T14:26:22;20.32;82.59
65203;HTU21D;51788;45.124;38.966;2022-07-22T14:28:49;20.40;82.42
65203;HTU21D;51788;45.124;38.966;2022-07-22T14:31:15;20.45;82.16
65203;HTU21D;51788;45.124;38.966;2022-07-22T14:33:41;20.45;81.95
65203;HTU21D;51788;45.124;38.966;2022-07-22T14:36:08;20.43;81.89
65203;HTU21D;51788;45.124;38.966;2022-07-22T14:38:34;20.42;81.88
65203;HTU21D;51788;45.124;38.966;2022-07-22T14:41:00;20.37;81.86
65203;HTU21D;51788;45.124;38.966;2022-07-22T14:43:26;20.33;82.07
65203;HTU21D;51788;45.124;38.966;2022-07-22T14:45:52;20.40;81.97
65203;HTU21D;51788;45.124;38.966;2022-07-22T14:48:18;20.36;81.88
65203;HTU21D;51788;45.124;38.966;2022-07-22T14:50:44;20.42;81.79
65203;HTU21D;51788;45.124;38.966;2022-07-22T14:53:12;20.43;81.75
65203;HTU21D;51788;45.124;38.966;2022-07-22T14:55:39;20.48;81.59
65203;HTU21D;51788;45.124;38.966;2022-07-22T14:58:05;20.49;81.56
65203;HTU21D;51788;45.124;38.966;2022-07-22T15:00:31;20.48;81.66
65203;HTU21D;51788;45.124;38.966;2022-07-22T15:02:57;20.58;81.43
65203;HTU21D;51788;45.124;38.966;2022-07-22T15:05:24;20.54;81.56
65203;HTU21D;51788;45.124;38.966;2022-07-22T15:07:50;20.61;81.46
65203;HTU21D;51788;45.124;38.966;2022-07-22T15:10:16;20.68;81.16
65203;HTU21D;51788;45.124;38.966;2022-07-22T15:12:43;20.76;81.13
65203;HTU21D;51788;45.124;38.966;2022-07-22T15:15:09;20.85;80.87
65203;HTU21D;51788;45.124;38.966;2022-07-22T15:17:37;20.84;80.98
65203;HTU21D;51788;45.124;38.966;2022-07-22T15:20:04;20.92;80.79
65203;HTU21D;51788;45.124;38.966;2022-07-22T15:22:32;21.02;80.59
65203;HTU21D;51788;45.124;38.966;2022-07-22T15:24:58;21.16;80.24
65203;HTU21D;51788;45.124;38.966;2022-07-22T15:27:24;21.27;80.04
65203;HTU21D;51788;45.124;38.966;2022-07-22T15:29:50;21.32;79.99
65203;HTU21D;51788;45.124;38.966;2022-07-22T15:32:16;21.25;80.39
65203;HTU21D;51788;45.124;38.966;2022-07-22T15:34:43;21.30;80.46